DNMMDGAA

Guest
Details From DNMM - Lagos Murtala Muhammed
To DGAA - Accra_Kotoka_Intl
Flight Number -
Tags generated
Created
Modified
Stats Distance 216 nm / 401 km
Max Altitude 0 ft / 0 m
Waypoints 2
Social Downloads 0
Likes 0
Share VATSIM

Download

Looking for another format? Having issues loading an existing format? Contact us
Advertisement - Login to hide

Notes

Basic altitude profile: - Ascent Rate: 500ft/min - Ascent Speed: 110kts - Cruise Altitude: 8000ft - Cruise Speed: 113kts - Descent Rate: 500ft/min - Descent Speed: 100kts Options: - Use NATs: no - Use PACOTS: no - Use low airways: no - Use high airways: no

Route

DNMM DGAA

ID Type Via Altitude Latitude Longitude Leg Dist Tot Dist Heading (true) Name
O DNMM APT - 0 ft / 0 m 6.57738˚ 3.32135˚ - 0 nm - Lagos Murtala Muhammed
O DGAA APT - 0 ft / 0 m 5.60258˚ -0.16760˚ 216 nm 216 nm 254° / 254° Accra_Kotoka_Intl

Altitude Profile

Advertisement - Login to hide

Weather


0- 5 10 15 20 25 30 35+ Temperature / ° C

Clouds and Precipitation
Forecast for 2017-12-14 00:00 UTC. Updated an hour ago

Ground ~20,000 ft ~40,000 ft Winds

DNMM

Details ICAO DNMM (LOS)
Name Lagos Murtala Muhammed
Region Nigeria
Timezone Africa/Lagos (UTC+1.0)
Stats Elevation 135 ft / 41 m (AMSL)
Location 6.577380° 3.321347°
Runways 2
Magnetic Variation 2.225° W

METAR

DNMM 132000Z VRB02KT 1600 HZ NSC 28/25 Q1013 NOSIG

Decode

TAF

TAF DNMM 131530Z 1318/1424 VRB02KT 2000 HZ NSC TEMPO 1404/1310 1200

Decode

Departure Runways

ID Width Length Bearing (true) Bearing (mag) Surface Threshold Offset Overrun Length
18L 148 ft / 45 m 9,049 ft / 2,758 m 180.00° 182.23° Asphalt 300 ft / 91 m 0 ft / 0 m
18R 197 ft / 60 m 12,867 ft / 3,922 m 180.00° 182.23° Asphalt 600 ft / 183 m 0 ft / 0 m
36L 197 ft / 60 m 12,867 ft / 3,922 m 0.00° 2.23° Asphalt 600 ft / 183 m 0 ft / 0 m
36R 148 ft / 45 m 9,049 ft / 2,758 m 0.00° 2.23° Asphalt 300 ft / 91 m 0 ft / 0 m

DGAA

Details ICAO DGAA (ACC)
Name Accra_Kotoka_Intl
Region Ghana
Timezone Africa/Accra (UTC+0.0)
Stats Elevation 204 ft / 62 m (AMSL)
Location 5.602578° -0.167602°
Runways 1
Magnetic Variation 3.420° W

METAR

DGAA 132000Z 19007KT 5000 BR NSC 28/26 Q1012 NOSIG

Decode

TAF

TAF DGAA 131700Z 1318/1424 18010KT 2000 HZ FEW025 BECMG 1400/1402 26005KT 5000 BR NSC TEMPO 1406/1409 1000 BR FEW015 FM141200Z 2000 HZ FEW035

Decode

Destination Runways

ID Width Length Bearing (true) Bearing (mag) Surface Threshold Offset Overrun Length
03 200 ft / 61 m 11,176 ft / 3,406 m 22.00° 25.42° Asphalt 0 ft / 0 m 351 ft / 107 m
21 200 ft / 61 m 11,176 ft / 3,406 m 202.00° 205.42° Asphalt 1,355 ft / 413 m 0 ft / 0 m

Approach Navaids

Runway Type Ident Frequency Range Bearing (true) Bearing (mag) Slope Elevation
21 Localiser IACA 109.90 MHz 18 nm / 33 km 202.10° 205.52° - 204 ft / 62 m (AMSL)
21 Glidescope IACA 109.90 MHz 10 nm / 19 km 203.00° 206.42° 3.00° 204 ft / 62 m (AMSL)

Popular Alternatives